Antioch, Nebraska
Current Conditions -  °F | °C
As of 12:53 AM on Saturday 01 Nov 2014 (Local Time) from KAIA Reporting Station
Clear Clear  
Wind Chill: 22°   Ceiling: Unl
Heat Index: 33°   Visibility: 10mi
Dew Point: 21°   Wind: 18mph
Humidity: 61%   Direction: 160°SSE
Pressure: 30.04"   Gusts: NA
Location:  42.1734°N, 102.461°W
Report Text: KAIA 010653Z AUTO 16016KT 10SM CLR 01/M06 A3004 RMK AO2 PK WND 16027/0609 SLP181 T00061061 400891056
Loading
Personal Weather Stations






























Interactive Weather Map
Tropical Storm Tracking
New forecast layout! Learn more

10-Day Weather Forecast

Advertisements
Track Severe Weather on mobile